Terminal Aerodrome Forecast
Issued by NWS Chicago, IL

Home | Current Version | Previous Version | Text Only | Print | Product List | Glossary Off
Versions: 1 2 3 4 5 6 7 8 9 10 11 12 13 14 15 16 17 18 19 20 21 22 23 24

714
FTUS43 KLOT 250259 AAA
TAFRFD
TAF AMD
KRFD 250259Z 2503/2524 36010KT P6SM BKN012 OVC020
     FM250600 35009KT 6SM BR SCT006 OVC012
      TEMPO 2508/2512 3SM BR OVC006
     FM251600 34012KT P6SM BKN020
     FM252000 34010KT P6SM SCT035=

USA.gov is the U.S. government's official web portal to all federal, state and local government web resources and services.